Flight Track Log - Related Links

Times and Time Zones

All times are in EDT time to prevent confusion due to time zone crossing. See the SWA2857 flight status page for this flight to view local times or setup timezone preferences in your user account.

Time Position Orientation Groundspeed Altitude Reporting Facility
EDT Latitude Longitude Course Direction KTS MPH feet Rate Location/Type
Sun 09:44:26 PM 42.3500 -70.9833 124° Southeast 151 174 1,000  Level KA90
Sun 09:45:08 PM 42.3333 -70.9500 124° Southeast 187 215 2,300 2,222 Climbing KA90
Sun 09:46:14 PM 42.3167 -70.8667 105° East 257 296 5,000 2,706 Climbing KA90
Sun 09:46:50 PM 42.3344 -70.8083 68° East 290 334 6,900 3,313 Climbing Boston Center
Sun 09:47:50 PM 42.3836 -70.7394 46° Northeast 271 312 10,300 3,250 Climbing Boston Center
Sun 09:48:50 PM 42.4667 -70.7203 10° North 261 300 13,400 2,850 Climbing Boston Center
Sun 09:49:50 PM 42.5467 -70.7886 328° Northwest 278 320 16,000 2,450 Climbing Boston Center
Sun 09:50:50 PM 42.5861 -70.9089 294° West 312 359 18,300 2,750 Climbing Boston Center
Sun 09:51:50 PM 42.5942 -71.0694 274° West 339 390 21,500 2,900 Climbing Boston Center
Sun 09:52:50 PM 42.5981 -71.2272 272° West 387 445 24,100 2,250 Climbing Boston Center
Sun 09:53:50 PM 42.6019 -71.3908 272° West 412 474 26,000 1,950 Climbing Boston Center
Sun 09:54:50 PM 42.6033 -71.5628 271° West 443 510 28,000 1,800 Climbing Boston Center
Sun 09:55:50 PM 42.6044 -71.7039 271° West 457 526 29,600 2,150 Climbing Boston Center
Sun 09:56:50 PM 42.6075 -71.9153 271° West 462 532 32,300 2,250 Climbing Boston Center
Sun 09:57:50 PM 42.6103 -72.0931 271° West 462 532 34,100 1,800 Climbing Boston Center
Sun 09:58:50 PM 42.6128 -72.2681 271° West 467 537 35,900 1,850 Climbing Boston Center
Sun 09:59:50 PM 42.6233 -72.4428 275° West 472 543 37,800 1,700 Climbing Boston Center
Sun 10:00:50 PM 42.6211 -72.6178 269° West 466 536 39,300 1,100 Climbing Boston Center
Sun 10:01:50 PM 42.6208 -72.7589 270° West 447 514 40,000 350 Climbing Boston Center
Sun 10:02:50 PM 42.6203 -72.9253 270° West 435 501 40,000  Level Boston Center
Sun 10:03:50 PM 42.6256 -73.0975 272° West 451 519 40,000  Level Boston Center
Sun 10:04:50 PM 42.6244 -73.2639 270° West 451 519 40,000  Level Boston Center
Sun 10:05:50 PM 42.6233 -73.4306 270° West 451 519 40,000  Level Boston Center
Sun 10:06:50 PM 42.6239 -73.5942 270° West 451 519 40,000  Level Boston Center
Sun 10:07:50 PM 42.6197 -73.7775 268° West 446 513 40,000  Level Boston Center
Sun 10:08:50 PM 42.6197 -73.9439 270° West 441 507 40,000  Level Boston Center
Sun 10:09:50 PM 42.6194 -74.1103 270° West 441 507 40,000  Level Boston Center
Sun 10:10:50 PM 42.6211 -74.2769 271° West 441 507 40,000  Level Boston Center
Sun 10:11:50 PM 42.6203 -74.4461 270° West 441 507 40,000  Level Boston Center
Sun 10:12:50 PM 42.6194 -74.6097 270° West 441 507 40,000  Level Boston Center
Sun 10:13:50 PM 42.6181 -74.7764 269° West 441 507 40,000  Level Boston Center
Sun 10:14:50 PM 42.6147 -74.9369 268° West 441 507 40,000  Level Boston Center
Sun 10:15:50 PM 42.6131 -75.1006 269° West 441 507 40,000  Level Boston Center
Sun 10:16:50 PM 42.6153 -75.2672 271° West 441 507 40,000  Level Boston Center
Sun 10:17:50 PM 42.6111 -75.4278 268° West 441 507 40,000  Level Boston Center
Sun 10:18:50 PM 42.6086 -75.5969 269° West 441 507 40,000  Level Boston Center
Sun 10:19:50 PM 42.6061 -75.7606 269° West 441 507 40,000  Level Boston Center
Sun 10:21:48 PM 42.6008 -76.0581 269° West 423 487 40,000  Level Cleveland Center
Sun 10:22:48 PM 42.5967 -76.2250 268° West 429 494 40,000  Level Cleveland Center
Sun 10:23:48 PM 42.5931 -76.4031 268° West 434 499 40,000  Level Cleveland Center
Sun 10:24:48 PM 42.5883 -76.5669 268° West 434 499 40,000  Level Cleveland Center
Sun 10:25:48 PM 42.5833 -76.7281 268° West 440 506 40,000  Level Cleveland Center
Sun 10:26:48 PM 42.5803 -76.8889 269° West 440 506 40,000  Level Cleveland Center
Sun 10:27:48 PM 42.5750 -77.0528 268° West 440 506 40,000  Level Cleveland Center
Sun 10:28:48 PM 42.5717 -77.2167 268° West 440 506 40,000  Level Cleveland Center
Sun 10:29:48 PM 42.5658 -77.3775 267° West 440 506 40,000  Level Cleveland Center
Sun 10:30:48 PM 42.5614 -77.5272 268° West 447 514 40,000  Level Cleveland Center
Sun 10:31:48 PM 42.5553 -77.6911 267° West 442 509 40,000  Level Cleveland Center
Sun 10:32:48 PM 42.5489 -77.8578 267° West 442 509 40,000  Level Cleveland Center
Sun 10:33:48 PM 42.5442 -78.0186 268° West 442 509 40,000  Level Cleveland Center
Sun 10:34:48 PM 42.5394 -78.1822 268° West 442 509 40,000  Level Cleveland Center
Sun 10:35:48 PM 42.5344 -78.3431 268° West 442 509 40,000  Level Cleveland Center
Sun 10:36:48 PM 42.5269 -78.5039 266° West 442 509 40,000  Level Cleveland Center
Sun 10:37:48 PM 42.5194 -78.6675 266° West 442 509 40,000  Level Cleveland Center
Sun 10:38:48 PM 42.5136 -78.8311 267° West 442 509 40,000  Level Cleveland Center
Sun 10:39:48 PM 42.5056 -78.9919 266° West 442 509 40,000  Level Cleveland Center
Sun 10:40:48 PM 42.4972 -79.1556 266° West 442 509 40,000  Level Cleveland Center
Sun 10:41:48 PM 42.4928 -79.3161 268° West 442 509 40,000  Level Cleveland Center
Sun 10:42:48 PM 42.5028 -79.4764 275° West 437 503 40,000  Level Cleveland Center
Sun 10:43:48 PM 42.5106 -79.6339 274° West 437 503 40,000  Level Cleveland Center
Sun 10:44:48 PM 42.5181 -79.7972 274° West 437 503 40,000  Level Cleveland Center
Sun 10:45:48 PM 42.5272 -79.9578 274° West 437 503 40,000  Level Cleveland Center
Sun 10:46:48 PM 42.5322 -80.1183 272° West 442 509 40,000  Level Cleveland Center
Sun 10:47:48 PM 42.5369 -80.2789 272° West 437 503 40,000  Level Cleveland Center
Sun 10:48:48 PM 42.5414 -80.4367 272° West 437 503 40,000  Level Cleveland Center
Sun 10:49:48 PM 42.5497 -80.5972 274° West 437 503 40,000  Level Cleveland Center
Sun 10:50:48 PM 42.5581 -80.7719 274° West 437 503 40,000  Level Cleveland Center
Sun 10:51:48 PM 42.5639 -80.9356 273° West 432 497 40,000  Level Cleveland Center
Sun 10:52:48 PM 42.5861 -81.0908 281° West 432 497 40,000  Level Cleveland Center
Sun 10:53:48 PM 42.6103 -81.2517 282° West 432 497 40,000  Level Cleveland Center
Sun 10:54:48 PM 42.6322 -81.4100 281° West 432 497 40,000  Level Cleveland Center
Sun 10:55:48 PM 42.6539 -81.5714 280° West 433 498 40,000  Level Cleveland Center
Sun 10:56:48 PM 42.6756 -81.7269 281° West 433 498 40,000  Level Cleveland Center
Sun 10:57:48 PM 42.6967 -81.8856 280° West 428 493 40,000  Level Cleveland Center
Sun 10:58:48 PM 42.7178 -82.0442 280° West 428 493 40,000  Level Cleveland Center
Sun 10:59:48 PM 42.7383 -82.2058 280° West 428 493 40,000  Level Cleveland Center
Sun 11:00:48 PM 42.7589 -82.3675 280° West 428 493 40,000  Level Cleveland Center
Sun 11:01:48 PM 42.7794 -82.5264 280° West 428 493 40,000  Level Cleveland Center
Sun 11:02:48 PM 42.7994 -82.6883 280° West 428 493 40,000  Level Cleveland Center
Sun 11:03:48 PM 42.8192 -82.8506 279° West 428 493 40,000  Level Cleveland Center
Sun 11:04:48 PM 42.8389 -83.0156 279° West 433 498 40,000  Level Cleveland Center
Sun 11:05:48 PM 42.8603 -83.1750 280° West 433 498 40,000  Level Cleveland Center
Sun 11:06:48 PM 42.8775 -83.3372 278° West 433 498 40,000  Level Cleveland Center
Sun 11:07:48 PM 42.8983 -83.5025 280° West 433 498 40,000  Level Cleveland Center
Sun 11:08:48 PM 42.9150 -83.6647 278° West 438 504 40,000  Level Cleveland Center
Sun 11:09:48 PM 42.9356 -83.8275 280° West 438 504 40,000  Level Cleveland Center
Sun 11:10:48 PM 42.9539 -83.9931 279° West 438 504 40,000  Level Cleveland Center
Sun 11:11:48 PM 42.9719 -84.1531 279° West 438 504 40,000  Level Cleveland Center
Sun 11:12:48 PM 42.9914 -84.3217 279° West 443 510 40,000  Level Cleveland Center
Sun 11:13:15 PM 43.0000 -84.3833 281° West 440 506 40,000  Level Chicago Center
Sun 11:14:16 PM 43.0181 -84.5478 279° West 440 506 40,000  Level Chicago Center
Sun 11:15:17 PM 43.0358 -84.7128 278° West 440 506 40,000  Level Chicago Center
Sun 11:16:18 PM 43.0447 -84.8772 274° West 438 504 40,000  Level Chicago Center
Sun 11:17:19 PM 43.0542 -85.0431 275° West 439 505 40,000  Level Chicago Center
Sun 11:18:20 PM 43.0636 -85.2078 275° West 437 503 40,000  Level Chicago Center
Sun 11:19:20 PM 43.0725 -85.3736 274° West 438 504 40,000  Level Chicago Center
Sun 11:20:21 PM 43.0814 -85.5400 274° West 440 506 40,000  Level Chicago Center
Sun 11:21:22 PM 43.0908 -85.7033 275° West 436 502 40,000 -590 Level Chicago Center
Sun 11:22:23 PM 43.1000 -85.8664 274° West 435 501 38,800 -2,213 Descending Chicago Center
Sun 11:23:24 PM 43.1097 -86.0614 274° West 438 504 35,500 -3,570 Descending Chicago Center
Sun 11:24:24 PM 43.1167 -86.2247 273° West 446 513 31,600 -3,620 Descending Chicago Center
Sun 11:25:25 PM 43.1253 -86.3989 274° West 459 528 28,200 -3,197 Descending Chicago Center
Sun 11:26:26 PM 43.1322 -86.5714 273° West 460 529 25,100 -2,066 Descending Chicago Center
Sun 11:27:27 PM 43.1406 -86.7386 274° West 449 517 24,000 -2,083 Descending Chicago Center
Sun 11:28:27 PM 43.1475 -86.9000 273° West 429 494 20,900 -3,174 Descending Chicago Center
Sun 11:29:28 PM 43.1519 -87.0669 272° West 441 507 17,600 -3,148 Descending Chicago Center
Sun 11:30:29 PM 43.1464 -87.2264 267° West 423 487 14,500 -3,246 Descending Chicago Center
Sun 11:31:30 PM 43.1297 -87.3989 263° West 378 435 11,000 -2,727 Descending Chicago Center
Sun 11:32:30 PM 43.0686 -87.4989 230° Southwest 342 394 9,000 -1,785 Descending Chicago Center
Sun 11:33:31 PM 43.0172 -87.5908 233° Southwest 310 357 7,400 -1,672 Descending Chicago Center
Sun 11:34:32 PM 42.9703 -87.6761 233° Southwest 286 329 5,600 -1,426 Descending Chicago Center
Sun 11:35:33 PM 42.9181 -87.7444 224° Southwest 265 305 4,500 -992 Descending Chicago Center
Sun 11:36:33 PM 42.8633 -87.7794 205° Southwest 224 258 3,600 -992 Descending Chicago Center
Sun 11:37:34 PM 42.8508 -87.8411 255° West 192 221 2,500 -689 Descending Chicago Center
Sun 11:38:35 PM 42.8631 -87.8983 286° West 171 197 2,200 -485 Descending Chicago Center
Sun 11:39:13 PM 42.8833 -87.9000 357° North 129 148 1,700 -796 Descending KMKE
Sun 11:40:13 PM 42.9333 -87.9000 360° North 123 142 900 -800 Descending KMKE
Sun 11:42:00 PM 42.9469 -87.8971 330° Northwest  Level Estimated

Login

Don't have an account? Register now (free) for customized features, flight alerts, and more!